Time;durP1;ratioP1;P1;durP2;ratioP2;P2;SDS_P1;SDS_P2;PMS_P1;PMS_P2;Temp;Humidity;BMP_temperature;BMP_pressure;BME280_temperature;BME280_humidity;BME280_pressure;Samples;Min_cycle;Max_cycle;Signal;HPM_P1;HPM_P2
2023/04/29 00:00:02;;;;;;;91.95;45.45;;;;;;;10.50;100.00;-18310.63;5006775;28;20042;-82
2023/04/29 00:02:28;;;;;;;91.13;43.65;;;;;;;10.50;100.00;-18310.78;5011035;28;20124;-82
2023/04/29 00:04:53;;;;;;;83.80;42.03;;;;;;;10.50;100.00;-18310.63;5011883;28;20062;-81
2023/04/29 00:07:18;;;;;;;80.03;40.10;;;;;;;10.50;100.00;-18310.63;5013218;28;20033;-81
2023/04/29 00:09:44;;;;;;;78.68;38.45;;;;;;;10.49;100.00;-18310.50;5009634;28;20045;-82
2023/04/29 00:12:09;;;;;;;81.63;39.88;;;;;;;10.46;100.00;-18309.69;5012838;28;20060;-82
2023/04/29 00:14:35;;;;;;;80.78;41.08;;;;;;;10.41;100.00;-18308.16;5013576;28;20065;-82
2023/04/29 00:17:00;;;;;;;81.47;39.05;;;;;;;10.46;100.00;-18309.53;5012129;28;20128;-82
2023/04/29 00:19:26;;;;;;;79.18;40.05;;;;;;;10.46;100.00;-18309.53;5009005;28;20042;-80
2023/04/29 00:21:53;;;;;;;73.53;38.58;;;;;;;10.38;100.00;-18307.63;5009582;28;20548;-82
2023/04/29 00:24:18;;;;;;;78.47;39.08;;;;;;;10.52;100.00;-18311.19;5003833;28;20031;-82
2023/04/29 00:26:44;;;;;;;72.82;38.38;;;;;;;10.39;100.00;-18307.75;5007873;28;20069;-82
2023/04/29 00:29:09;;;;;;;82.50;39.10;;;;;;;10.44;100.00;-18309.00;5006671;28;20072;-81
2023/04/29 00:31:36;;;;;;;79.45;39.00;;;;;;;10.48;100.00;-18310.09;5007724;28;20054;-80
2023/04/29 00:34:01;;;;;;;86.10;42.28;;;;;;;10.49;100.00;-18310.38;5009044;28;20042;-82
2023/04/29 00:36:27;;;;;;;77.38;37.65;;;;;;;10.43;100.00;-18308.72;5009426;28;20571;-81
2023/04/29 00:38:52;;;;;;;77.53;39.30;;;;;;;10.38;100.00;-18307.63;5009500;28;20073;-82
2023/04/29 00:41:18;;;;;;;77.65;39.22;;;;;;;10.42;100.00;-18308.44;5006098;28;20057;-80
2023/04/29 00:43:44;;;;;;;84.20;41.50;;;;;;;10.33;100.00;-18306.25;5010430;28;20184;-82
2023/04/29 00:46:09;;;;;;;89.38;42.63;;;;;;;10.38;100.00;-18307.47;5005596;28;20180;-83
2023/04/29 00:48:34;;;;;;;78.78;40.25;;;;;;;10.32;100.00;-18305.81;5006668;28;20088;-80
2023/04/29 00:51:01;;;;;;;83.88;41.45;;;;;;;10.29;100.00;-18305.13;5006958;28;20048;-82
2023/04/29 00:53:26;;;;;;;85.38;42.05;;;;;;;10.49;100.00;-18310.50;5008595;28;20045;-80
2023/04/29 00:55:52;;;;;;;84.10;41.40;;;;;;;10.39;100.00;-18307.88;5008419;28;20050;-83
2023/04/29 00:58:18;;;;;;;82.47;38.03;;;;;;;10.31;100.00;-18305.69;5007763;28;20128;-83
2023/04/29 01:00:45;;;;;;;84.05;40.95;;;;;;;10.22;100.00;-18303.06;5007460;28;20073;-81
2023/04/29 01:03:12;;;;;;;85.43;41.78;;;;;;;10.23;100.00;-18303.47;5008038;28;20133;-82
2023/04/29 01:05:37;;;;;;;85.15;44.03;;;;;;;10.22;100.00;-18303.22;5008403;28;20038;-80
2023/04/29 01:08:47;;;;;;;85.68;42.17;;;;;;;10.26;100.00;-18304.31;5024828;28;20121;-80
2023/04/29 01:11:19;;;;;;;87.22;44.75;;;;;;;10.26;100.00;-18304.31;5009528;28;20756;-81
2023/04/29 01:13:57;;;;;;;83.05;41.55;;;;;;;10.42;100.00;-18308.44;5010579;28;20544;-81
2023/04/29 01:16:30;;;;;;;85.00;44.27;;;;;;;10.45;100.00;-18309.25;5008556;28;20050;-81
2023/04/29 01:19:03;;;;;;;87.03;43.58;;;;;;;10.55;100.00;-18312.16;5010967;28;20046;-81
2023/04/29 01:21:30;;;;;;;88.72;45.00;;;;;;;10.27;100.00;-18304.44;5009882;28;20256;-81
2023/04/29 01:23:56;;;;;;;86.50;46.97;;;;;;;10.39;100.00;-18307.88;5012453;28;20042;-81
2023/04/29 01:26:22;;;;;;;85.80;46.88;;;;;;;10.53;100.00;-18311.47;5011422;28;20037;-81
2023/04/29 01:29:22;;;;;;;87.00;46.50;;;;;;;10.65;100.00;-18314.75;5008637;28;20042;-81
2023/04/29 01:32:04;;;;;;;89.30;48.25;;;;;;;10.57;100.00;-18312.69;5009875;28;20061;-81
2023/04/29 01:34:48;;;;;;;89.80;48.63;;;;;;;10.89;100.00;-18321.06;5011528;28;20048;-81
2023/04/29 01:37:21;;;;;;;86.72;50.03;;;;;;;10.33;100.00;-18306.25;5011398;28;20038;-80
2023/04/29 01:40:18;;;;;;;92.30;47.55;;;;;;;10.39;100.00;-18307.75;5024720;28;20053;-81
2023/04/29 01:42:59;;;;;;;90.75;49.15;;;;;;;10.31;100.00;-18305.56;5010296;28;20041;-81
2023/04/29 01:45:26;;;;;;;93.07;51.35;;;;;;;10.32;100.00;-18305.81;5009559;28;20424;-81
2023/04/29 01:47:55;;;;;;;95.53;45.63;;;;;;;10.52;100.00;-18311.31;5010958;28;20034;-80
2023/04/29 01:50:21;;;;;;;104.45;51.03;;;;;;;10.56;100.00;-18312.44;5005820;28;20042;-80
2023/04/29 01:52:46;;;;;;;95.60;51.33;;;;;;;10.64;100.00;-18314.34;5013152;28;20057;-80
2023/04/29 01:55:11;;;;;;;96.03;51.92;;;;;;;10.78;100.00;-18318.19;5010876;28;20048;-80
2023/04/29 01:57:37;;;;;;;91.05;43.45;;;;;;;10.70;100.00;-18316.00;5012819;28;20125;-80
2023/04/29 02:00:03;;;;;;;91.80;53.70;;;;;;;10.83;100.00;-18319.56;5010776;28;20050;-81
2023/04/29 02:02:29;;;;;;;93.45;52.50;;;;;;;10.91;100.00;-18321.63;5010458;28;20042;-81
2023/04/29 02:04:54;;;;;;;94.90;51.97;;;;;;;10.97;100.00;-18323.28;5012228;28;20057;-80
2023/04/29 02:07:20;;;;;;;93.32;49.75;;;;;;;11.19;100.00;-18329.31;5013659;28;20082;-80
2023/04/29 02:09:45;;;;;;;94.20;49.65;;;;;;;10.54;100.00;-18311.88;5009277;28;20046;-81
2023/04/29 02:12:10;;;;;;;90.32;51.03;;;;;;;10.41;100.00;-18308.31;5008878;28;20046;-80
2023/04/29 02:14:36;;;;;;;89.32;48.42;;;;;;;10.38;100.00;-18307.63;5007076;28;20046;-80
2023/04/29 02:17:01;;;;;;;87.20;49.72;;;;;;;10.37;100.00;-18307.19;5007435;28;20052;-80
2023/04/29 02:19:27;;;;;;;83.28;47.13;;;;;;;10.29;100.00;-18305.13;5004422;28;20053;-81
2023/04/29 02:21:52;;;;;;;80.68;45.30;;;;;;;10.49;100.00;-18310.50;5007847;28;20381;-81
2023/04/29 02:24:18;;;;;;;83.97;47.85;;;;;;;10.66;100.00;-18314.91;5008321;28;20050;-80
2023/04/29 02:26:43;;;;;;;76.68;45.90;;;;;;;10.77;100.00;-18317.91;5011211;28;20053;-80
2023/04/29 02:29:08;;;;;;;79.88;40.63;;;;;;;10.64;100.00;-18314.47;5011303;28;20477;-80
2023/04/29 02:31:34;;;;;;;83.63;49.53;;;;;;;10.61;100.00;-18313.78;5012256;28;20583;-80
2023/04/29 02:33:59;;;;;;;78.75;45.53;;;;;;;10.76;100.00;-18317.63;5014129;28;20045;-80
2023/04/29 02:36:25;;;;;;;79.85;46.40;;;;;;;10.70;100.00;-18316.13;5012276;28;20065;-80
2023/04/29 02:38:54;;;;;;;77.72;46.42;;;;;;;10.65;100.00;-18314.75;5011598;28;20038;-80
2023/04/29 02:41:19;;;;;;;76.72;43.72;;;;;;;10.77;100.00;-18317.91;5012705;28;20057;-80
2023/04/29 02:43:45;;;;;;;77.70;43.67;;;;;;;10.92;100.00;-18322.03;5014377;28;20038;-80
2023/04/29 02:46:10;;;;;;;76.88;44.67;;;;;;;10.98;100.00;-18323.56;5011017;28;20514;-80
2023/04/29 02:48:36;;;;;;;81.90;46.33;;;;;;;10.64;100.00;-18314.34;5011816;28;20045;-80
2023/04/29 02:51:01;;;;;;;77.25;43.15;;;;;;;10.74;100.00;-18317.09;5010812;28;20046;-80
2023/04/29 02:53:26;;;;;;;69.18;43.78;;;;;;;10.74;100.00;-18317.09;5010958;28;20072;-80
2023/04/29 02:55:52;;;;;;;73.53;45.22;;;;;;;10.72;100.00;-18316.53;5012120;28;20133;-80
2023/04/29 02:58:17;;;;;;;74.00;42.70;;;;;;;10.61;100.00;-18313.78;5009076;28;20501;-80
2023/04/29 03:00:42;;;;;;;69.53;41.45;;;;;;;10.73;100.00;-18316.81;5009098;28;21198;-80
2023/04/29 03:03:08;;;;;;;68.88;40.55;;;;;;;10.75;100.00;-18317.38;5009878;28;20053;-80
2023/04/29 03:05:34;;;;;;;69.13;42.30;;;;;;;10.75;100.00;-18317.38;5009713;28;20038;-80
2023/04/29 03:08:00;;;;;;;66.82;40.60;;;;;;;10.76;100.00;-18317.78;5009814;28;20074;-80
2023/04/29 03:10:25;;;;;;;65.63;38.13;;;;;;;10.78;100.00;-18318.19;5009701;28;20054;-80
2023/04/29 03:12:50;;;;;;;65.20;38.75;;;;;;;10.74;100.00;-18317.09;5012040;28;20542;-79
2023/04/29 03:15:16;;;;;;;61.67;39.80;;;;;;;10.75;100.00;-18317.38;5010377;28;20049;-80
2023/04/29 03:17:41;;;;;;;63.53;38.47;;;;;;;10.73;100.00;-18316.97;5011477;28;20049;-80
2023/04/29 03:20:09;;;;;;;58.13;37.60;;;;;;;10.68;100.00;-18315.44;5004090;28;20041;-80
2023/04/29 03:22:34;;;;;;;61.88;38.63;;;;;;;10.51;100.00;-18311.06;5010808;28;20096;-81
2023/04/29 03:25:00;;;;;;;58.85;37.88;;;;;;;10.27;100.00;-18304.44;5010611;28;20037;-80
2023/04/29 03:27:25;;;;;;;58.45;35.17;;;;;;;10.44;100.00;-18309.13;5005965;28;20065;-81
2023/04/29 03:29:51;;;;;;;58.38;37.65;;;;;;;10.28;100.00;-18304.88;5011096;28;20465;-80
2023/04/29 03:32:17;;;;;;;58.78;39.28;;;;;;;10.32;100.00;-18305.81;5009183;28;20103;-81
2023/04/29 03:34:42;;;;;;;56.15;36.50;;;;;;;10.23;100.00;-18303.34;5010644;28;20038;-81
2023/04/29 03:37:07;;;;;;;61.80;37.22;;;;;;;10.27;100.00;-18304.44;5011129;28;20489;-80
2023/04/29 03:39:33;;;;;;;57.38;35.40;;;;;;;10.26;100.00;-18304.16;5009172;28;20049;-80
2023/04/29 03:41:58;;;;;;;62.65;36.47;;;;;;;10.34;100.00;-18306.38;5010080;28;20033;-81
2023/04/29 03:44:24;;;;;;;54.05;34.47;;;;;;;10.35;100.00;-18306.66;5010003;28;20501;-80
2023/04/29 03:46:50;;;;;;;56.65;35.63;;;;;;;10.46;100.00;-18309.69;5010939;28;20050;-80
2023/04/29 03:49:16;;;;;;;53.00;34.22;;;;;;;10.73;100.00;-18316.81;5008960;28;20053;-80
2023/04/29 03:51:44;;;;;;;51.35;33.80;;;;;;;10.25;100.00;-18303.91;5010081;28;20038;-80
2023/04/29 03:54:09;;;;;;;54.80;36.03;;;;;;;10.17;100.00;-18301.97;5007392;28;20033;-80
2023/04/29 03:56:34;;;;;;;55.92;36.97;;;;;;;10.20;100.00;-18302.66;5010018;28;20147;-80
2023/04/29 03:59:00;;;;;;;54.53;35.75;;;;;;;10.36;100.00;-18307.06;5012487;28;20049;-80
2023/04/29 04:01:25;;;;;;;53.45;35.92;;;;;;;10.41;100.00;-18308.16;5011534;28;20493;-80
2023/04/29 04:03:51;;;;;;;57.28;36.35;;;;;;;10.56;100.00;-18312.44;5011680;28;20049;-80
2023/04/29 04:06:16;;;;;;;50.00;33.25;;;;;;;10.59;100.00;-18313.25;5011243;28;20037;-80
2023/04/29 04:08:41;;;;;;;47.92;33.25;;;;;;;10.59;100.00;-18313.25;5011027;28;20049;-80
2023/04/29 04:11:08;;;;;;;47.55;32.08;;;;;;;10.81;100.00;-18319.00;5007320;28;20042;-80
2023/04/29 04:13:34;;;;;;;45.88;31.88;;;;;;;10.67;100.00;-18315.31;5008974;28;20038;-80
2023/04/29 04:15:59;;;;;;;48.22;34.67;;;;;;;10.48;100.00;-18310.22;5010399;28;20526;-80
2023/04/29 04:18:25;;;;;;;47.38;32.03;;;;;;;10.50;100.00;-18310.78;5008156;28;20088;-80
2023/04/29 04:20:50;;;;;;;46.30;32.85;;;;;;;10.45;100.00;-18309.41;5008159;28;20112;-80
2023/04/29 04:23:16;;;;;;;52.67;35.10;;;;;;;10.77;100.00;-18318.06;5009775;28;20058;-80
2023/04/29 04:25:45;;;;;;;49.53;33.28;;;;;;;10.82;100.00;-18319.44;5007924;28;20073;-80
2023/04/29 04:28:21;;;;;;;47.75;33.47;;;;;;;10.57;100.00;-18312.69;5003043;23;20555;-87
2023/04/29 04:30:55;;;;;;;47.30;33.05;;;;;;;10.70;100.00;-18316.13;4963975;28;20163;-85
2023/04/29 04:33:35;;;;;;;47.88;31.48;;;;;;;10.75;100.00;-18317.38;4923386;28;20050;-87
2023/04/29 04:36:08;;;;;;;50.45;32.42;;;;;;;10.67;100.00;-18315.16;4918080;28;20079;-87
2023/04/29 04:38:46;;;;;;;47.63;33.38;;;;;;;10.72;100.00;-18316.53;4851139;29;20044;-88
2023/04/29 04:41:30;;;;;;;47.88;33.20;;;;;;;10.47;100.00;-18309.94;4853846;29;20056;-85
2023/04/29 04:43:56;;;;;;;55.00;35.63;;;;;;;10.38;100.00;-18307.63;4995368;23;20081;-83
2023/04/29 04:46:21;;;;;;;48.72;31.63;;;;;;;10.31;100.00;-18305.56;5010543;28;20045;-83
2023/04/29 04:48:47;;;;;;;57.53;35.00;;;;;;;10.57;100.00;-18312.69;5008865;28;20104;-82
2023/04/29 04:51:13;;;;;;;54.03;34.30;;;;;;;10.75;100.00;-18317.38;5000590;28;20049;-82
2023/04/29 04:53:39;;;;;;;53.97;34.13;;;;;;;10.45;100.00;-18309.41;5008215;28;20046;-84
2023/04/29 04:56:06;;;;;;;50.00;34.40;;;;;;;10.27;100.00;-18304.59;5008781;28;20125;-83
2023/04/29 04:58:32;;;;;;;52.65;34.90;;;;;;;10.29;100.00;-18305.00;5003317;28;20056;-82
2023/04/29 05:00:58;;;;;;;56.30;35.75;;;;;;;10.43;100.00;-18308.84;5018593;28;20129;-82
2023/04/29 05:03:23;;;;;;;56.25;34.50;;;;;;;10.07;100.00;-18299.09;5003731;28;20033;-82
2023/04/29 05:05:53;;;;;;;54.83;35.75;;;;;;;10.16;100.00;-18301.69;5002149;28;20048;-82
2023/04/29 05:08:19;;;;;;;59.95;36.38;;;;;;;10.16;100.00;-18301.69;5004028;28;20045;-82
2023/04/29 05:10:44;;;;;;;58.85;36.05;;;;;;;10.17;100.00;-18301.84;5008913;28;20040;-85
2023/04/29 05:13:09;;;;;;;58.40;36.10;;;;;;;10.31;100.00;-18305.56;5003578;28;20106;-82
2023/04/29 05:15:35;;;;;;;63.70;37.42;;;;;;;10.26;100.00;-18304.16;5007567;28;20057;-83
2023/04/29 05:18:00;;;;;;;55.53;35.90;;;;;;;10.23;100.00;-18303.34;5009707;28;20030;-83
2023/04/29 05:20:26;;;;;;;56.25;35.20;;;;;;;10.36;100.00;-18306.94;5006966;28;20061;-83
2023/04/29 05:22:51;;;;;;;58.80;37.88;;;;;;;10.39;100.00;-18307.88;5007979;28;20129;-84
2023/04/29 05:25:16;;;;;;;56.63;36.60;;;;;;;10.42;100.00;-18308.56;5006966;28;20038;-83
2023/04/29 05:27:42;;;;;;;60.67;36.97;;;;;;;10.36;100.00;-18306.94;5008459;28;20696;-82
2023/04/29 05:30:08;;;;;;;59.53;38.80;;;;;;;10.50;100.00;-18310.78;5007337;28;20049;-83
2023/04/29 05:32:33;;;;;;;58.38;36.60;;;;;;;10.21;100.00;-18302.78;5004785;28;20739;-83
2023/04/29 05:34:58;;;;;;;56.83;36.00;;;;;;;10.24;100.00;-18303.75;5003790;28;20732;-82
2023/04/29 05:37:29;;;;;;;55.75;35.03;;;;;;;10.34;100.00;-18306.38;5005131;28;20066;-83
2023/04/29 05:39:55;;;;;;;56.83;35.40;;;;;;;10.24;100.00;-18303.75;5011754;28;20068;-82
2023/04/29 05:42:20;;;;;;;57.72;36.92;;;;;;;10.41;100.00;-18308.31;5009631;28;20038;-82
2023/04/29 05:44:45;;;;;;;58.58;33.80;;;;;;;10.48;100.00;-18310.22;5009320;28;20041;-82
2023/04/29 05:47:11;;;;;;;58.13;35.00;;;;;;;10.32;100.00;-18305.97;5016172;28;20037;-82
2023/04/29 05:49:36;;;;;;;59.25;34.80;;;;;;;10.46;100.00;-18309.53;5004338;28;20045;-83
2023/04/29 05:52:05;;;;;;;58.03;37.38;;;;;;;10.52;100.00;-18311.31;5007375;28;20087;-83
2023/04/29 05:54:31;;;;;;;59.78;36.08;;;;;;;10.73;100.00;-18316.81;5007878;28;20046;-83
2023/04/29 05:56:56;;;;;;;58.25;35.28;;;;;;;10.70;100.00;-18316.00;5006625;28;20054;-82
2023/04/29 05:59:22;;;;;;;58.67;36.17;;;;;;;10.55;100.00;-18312.16;5007542;28;20430;-82
2023/04/29 06:01:47;;;;;;;58.17;38.38;;;;;;;10.46;100.00;-18309.69;5012489;28;20473;-85
2023/04/29 06:04:12;;;;;;;56.30;34.42;;;;;;;10.57;100.00;-18312.56;5007914;28;20080;-83
2023/04/29 06:06:38;;;;;;;54.67;34.35;;;;;;;10.63;100.00;-18314.22;5012107;28;20041;-82
2023/04/29 06:09:03;;;;;;;56.40;35.08;;;;;;;10.79;100.00;-18318.47;5009856;28;20042;-83
2023/04/29 06:11:29;;;;;;;52.20;34.42;;;;;;;10.89;100.00;-18321.06;5010550;28;20046;-85
2023/04/29 06:13:54;;;;;;;51.35;34.17;;;;;;;10.92;100.00;-18322.03;5019096;28;20050;-83
2023/04/29 06:16:20;;;;;;;48.08;32.38;;;;;;;10.71;100.00;-18316.28;5003226;28;20041;-83
2023/04/29 06:18:45;;;;;;;52.70;33.35;;;;;;;10.53;100.00;-18311.59;5012917;28;20050;-83
2023/04/29 06:21:11;;;;;;;53.10;32.65;;;;;;;10.31;100.00;-18305.56;5011099;28;20099;-82
2023/04/29 06:23:36;;;;;;;50.50;31.23;;;;;;;10.33;100.00;-18306.09;5009384;28;20743;-84
2023/04/29 06:26:01;;;;;;;49.70;33.30;;;;;;;10.40;100.00;-18308.03;5011579;28;20037;-84
2023/04/29 06:28:28;;;;;;;50.13;32.28;;;;;;;10.31;100.00;-18305.56;5007175;28;20038;-81
2023/04/29 06:30:54;;;;;;;46.65;32.58;;;;;;;10.46;100.00;-18309.69;5011260;28;20684;-81
2023/04/29 06:33:19;;;;;;;45.53;31.40;;;;;;;9.90;100.00;-18294.69;5009318;28;20045;-81
2023/04/29 06:35:44;;;;;;;46.22;31.33;;;;;;;10.15;100.00;-18301.28;5009336;28;20033;-80
2023/04/29 06:38:10;;;;;;;51.35;31.15;;;;;;;10.01;100.00;-18297.56;5027137;28;20030;-81
2023/04/29 06:40:35;;;;;;;48.03;30.48;;;;;;;10.05;100.00;-18298.69;5006120;28;20050;-81
2023/04/29 06:43:01;;;;;;;45.95;29.20;;;;;;;10.12;100.00;-18300.47;5010212;28;20042;-81
2023/04/29 06:45:27;;;;;;;48.20;29.67;;;;;;;10.43;100.00;-18308.84;5000329;28;20049;-81
2023/04/29 06:47:52;;;;;;;45.53;31.27;;;;;;;10.46;100.00;-18309.69;5012430;28;20111;-81
2023/04/29 06:50:17;;;;;;;45.30;29.80;;;;;;;10.43;100.00;-18308.72;5013605;28;20041;-81
2023/04/29 06:52:43;;;;;;;43.85;30.08;;;;;;;10.60;100.00;-18313.38;5013362;28;20072;-81
2023/04/29 06:55:09;;;;;;;43.95;30.05;;;;;;;10.16;100.00;-18301.69;5013313;28;20038;-82
2023/04/29 06:57:35;;;;;;;42.88;28.23;;;;;;;10.21;100.00;-18302.94;5012413;28;20076;-82
2023/04/29 07:00:01;;;;;;;41.03;28.15;;;;;;;10.31;100.00;-18305.56;5006253;28;20074;-81
2023/04/29 07:02:26;;;;;;;44.05;30.27;;;;;;;10.23;100.00;-18303.34;5011738;28;20033;-81
2023/04/29 07:04:52;;;;;;;43.65;29.95;;;;;;;10.15;100.00;-18301.28;5014355;28;20448;-82
2023/04/29 07:07:18;;;;;;;44.58;29.52;;;;;;;10.19;100.00;-18302.25;5003565;28;20054;-84
2023/04/29 07:09:43;;;;;;;44.38;29.38;;;;;;;10.22;100.00;-18303.06;5011409;28;20056;-81
2023/04/29 07:12:08;;;;;;;47.38;30.42;;;;;;;10.26;100.00;-18304.16;5007914;28;20059;-82
2023/04/29 07:14:36;;;;;;;42.45;27.65;;;;;;;10.24;100.00;-18303.63;5012499;28;20497;-82
2023/04/29 07:17:01;;;;;;;42.38;29.13;;;;;;;10.48;100.00;-18310.22;5012414;28;20038;-82
2023/04/29 07:19:27;;;;;;;43.30;28.52;;;;;;;10.32;100.00;-18305.97;5011499;28;20033;-83
2023/04/29 07:21:52;;;;;;;41.38;28.58;;;;;;;10.42;100.00;-18308.56;5035466;28;20049;-83
2023/04/29 07:24:17;;;;;;;41.92;28.13;;;;;;;10.55;100.00;-18312.16;5018786;28;20038;-81
2023/04/29 07:26:46;;;;;;;42.88;28.27;;;;;;;10.56;100.00;-18312.28;5008569;28;20042;-82
2023/04/29 07:29:11;;;;;;;38.55;27.25;;;;;;;10.65;100.00;-18314.63;5004319;28;20097;-82
2023/04/29 07:31:37;;;;;;;42.10;28.45;;;;;;;10.63;100.00;-18314.06;5011153;28;20041;-82
2023/04/29 07:34:02;;;;;;;41.55;26.00;;;;;;;10.57;100.00;-18312.69;5011283;28;20136;-82
2023/04/29 07:36:28;;;;;;;39.90;26.80;;;;;;;10.52;100.00;-18311.19;5011142;28;20132;-82
2023/04/29 07:38:54;;;;;;;36.80;24.98;;;;;;;10.62;100.00;-18313.94;5007470;28;20042;-82
2023/04/29 07:41:19;;;;;;;39.47;26.42;;;;;;;10.89;100.00;-18321.22;5013309;28;20062;-83
2023/04/29 07:43:45;;;;;;;40.90;25.83;;;;;;;10.59;100.00;-18313.13;4999936;28;20460;-82
2023/04/29 07:46:10;;;;;;;36.88;24.35;;;;;;;10.68;100.00;-18315.59;5012330;28;20046;-81
2023/04/29 07:48:39;;;;;;;36.63;24.80;;;;;;;10.78;100.00;-18318.31;5012154;28;20104;-82
2023/04/29 07:51:05;;;;;;;36.38;25.35;;;;;;;10.79;100.00;-18318.47;5013621;28;20038;-81
2023/04/29 07:53:31;;;;;;;33.42;22.92;;;;;;;10.83;100.00;-18319.56;5024370;28;20041;-82
2023/04/29 07:55:56;;;;;;;37.80;25.15;;;;;;;10.86;100.00;-18320.38;5013588;28;20045;-82
2023/04/29 07:58:22;;;;;;;35.28;23.48;;;;;;;10.78;100.00;-18318.19;5012204;28;20044;-81
2023/04/29 08:00:47;;;;;;;35.05;23.75;;;;;;;10.86;100.00;-18320.38;5027811;28;20045;-82
2023/04/29 08:03:13;;;;;;;34.75;25.05;;;;;;;10.84;100.00;-18319.84;5009929;28;20045;-82
2023/04/29 08:05:38;;;;;;;33.88;23.77;;;;;;;10.82;100.00;-18319.28;4999064;28;20066;-83
2023/04/29 08:08:04;;;;;;;34.92;24.30;;;;;;;10.74;100.00;-18317.09;5023687;28;20064;-81
2023/04/29 08:10:29;;;;;;;35.30;22.38;;;;;;;10.81;100.00;-18319.00;5011550;28;20117;-83
2023/04/29 08:12:55;;;;;;;34.88;23.90;;;;;;;10.87;100.00;-18320.66;5012321;28;20128;-82
2023/04/29 08:15:20;;;;;;;36.97;23.15;;;;;;;10.95;100.00;-18322.88;5009829;28;20052;-82
2023/04/29 08:17:46;;;;;;;43.25;27.23;;;;;;;10.94;100.00;-18322.44;5005310;28;20052;-81
2023/04/29 08:20:12;;;;;;;34.30;23.98;;;;;;;11.03;100.00;-18325.06;5008854;28;20182;-81
2023/04/29 08:22:37;;;;;;;31.92;21.90;;;;;;;11.02;100.00;-18324.78;5013048;28;20049;-82
2023/04/29 08:25:04;;;;;;;33.35;21.52;;;;;;;11.20;100.00;-18329.59;5014683;28;20054;-82
2023/04/29 08:27:30;;;;;;;29.30;20.38;;;;;;;11.45;100.00;-18336.31;5014708;28;20052;-81
2023/04/29 08:29:55;;;;;;;29.52;20.15;;;;;;;11.46;100.00;-18336.59;5015569;28;20440;-82
2023/04/29 08:32:21;;;;;;;31.75;21.58;;;;;;;11.63;100.00;-18341.13;5004755;28;20147;-82
2023/04/29 08:34:48;;;;;;;33.53;23.33;;;;;;;11.99;100.00;-18350.72;5009180;28;20050;-82
2023/04/29 08:37:14;;;;;;;33.33;23.08;;;;;;;12.26;100.00;-18358.00;5024593;28;20042;-82
2023/04/29 08:39:42;;;;;;;28.63;20.83;;;;;;;12.14;100.00;-18354.72;5005421;28;20046;-83
2023/04/29 08:42:10;;;;;;;33.60;22.55;;;;;;;11.72;100.00;-18343.59;5006634;28;20034;-82
2023/04/29 08:44:35;;;;;;;30.10;20.80;;;;;;;11.93;100.00;-18349.09;4998778;28;20080;-82
2023/04/29 08:47:01;;;;;;;30.58;20.88;;;;;;;11.68;100.00;-18342.50;5010289;28;20044;-82
2023/04/29 08:49:32;;;;;;;30.58;20.23;;;;;;;11.57;100.00;-18339.47;5003837;28;20066;-82
2023/04/29 08:51:58;;;;;;;32.15;21.48;;;;;;;11.68;100.00;-18342.34;5003470;28;20049;-82
2023/04/29 08:54:23;;;;;;;27.30;19.90;;;;;;;11.55;100.00;-18338.78;5006073;28;20184;-82
2023/04/29 08:56:50;;;;;;;30.88;21.45;;;;;;;11.43;100.00;-18335.78;5004126;28;20040;-81
2023/04/29 08:59:16;;;;;;;27.63;19.63;;;;;;;11.51;100.00;-18337.84;5003528;28;20064;-82
2023/04/29 09:01:43;;;;;;;27.75;20.42;;;;;;;11.53;100.00;-18338.38;5002052;28;20041;-81
2023/04/29 09:04:19;;;;;;;29.38;19.58;;;;;;;11.75;100.00;-18344.28;5005835;28;20038;-82
2023/04/29 09:06:45;;;;;;;26.42;18.23;;;;;;;11.89;100.00;-18348.00;5002350;28;20069;-82
2023/04/29 09:09:13;;;;;;;28.92;19.80;;;;;;;11.77;100.00;-18344.69;5000543;28;20056;-81
2023/04/29 09:11:38;;;;;;;29.92;20.75;;;;;;;11.75;100.00;-18344.28;5004787;28;20136;-82
2023/04/29 09:14:04;;;;;;;27.15;19.90;;;;;;;12.05;100.00;-18352.25;5002285;28;20129;-83
2023/04/29 09:16:29;;;;;;;28.63;20.13;;;;;;;11.96;100.00;-18349.91;5005782;28;20080;-82
2023/04/29 09:18:55;;;;;;;29.65;21.67;;;;;;;12.08;100.00;-18353.19;5001192;28;20284;-83
2023/04/29 09:21:22;;;;;;;28.63;19.27;;;;;;;12.12;100.00;-18354.16;4999041;28;20047;-82
2023/04/29 09:23:56;;;;;;;25.40;18.17;;;;;;;12.10;100.00;-18353.63;5000722;28;20046;-82
2023/04/29 09:26:23;;;;;;;24.50;18.38;;;;;;;12.17;100.00;-18355.53;5001584;28;20575;-82
2023/04/29 09:29:12;;;;;;;26.25;17.02;;;;;;;12.46;100.00;-18363.34;5001721;28;20053;-82
2023/04/29 09:31:38;;;;;;;21.98;17.25;;;;;;;12.23;100.00;-18357.19;5008131;28;20042;-82
2023/04/29 09:34:04;;;;;;;23.17;17.80;;;;;;;12.31;100.00;-18359.25;5008235;28;20080;-83
2023/04/29 09:36:43;;;;;;;23.73;18.45;;;;;;;12.55;100.00;-18365.81;5007475;28;20196;-82
2023/04/29 09:39:19;;;;;;;23.63;18.05;;;;;;;12.65;100.00;-18368.44;5012673;28;20053;-82
2023/04/29 09:41:51;;;;;;;24.08;17.48;;;;;;;12.60;100.00;-18367.06;5011912;28;20041;-82
2023/04/29 09:44:16;;;;;;;23.98;16.23;;;;;;;12.66;100.00;-18368.72;5008874;28;20046;-82
2023/04/29 09:46:42;;;;;;;23.77;16.08;;;;;;;12.78;100.00;-18372.00;5000101;28;20061;-82
2023/04/29 09:49:23;;;;;;;25.00;17.38;;;;;;;12.83;100.00;-18373.38;5001228;28;20050;-83
2023/04/29 09:52:11;;;;;;;24.00;17.05;;;;;;;13.15;100.00;-18381.72;4999573;28;20457;-83
2023/04/29 09:54:38;;;;;;;21.83;15.70;;;;;;;13.44;100.00;-18389.56;5009210;28;20042;-82
2023/04/29 09:57:05;;;;;;;22.02;15.40;;;;;;;13.87;100.00;-18401.19;5011413;28;20073;-82
2023/04/29 09:59:32;;;;;;;20.73;14.60;;;;;;;13.67;100.00;-18395.72;5009510;28;20038;-83
2023/04/29 10:01:57;;;;;;;18.08;13.82;;;;;;;13.60;100.00;-18393.94;5011361;28;20046;-82
2023/04/29 10:04:25;;;;;;;17.55;13.95;;;;;;;13.32;100.00;-18386.53;5011344;28;20056;-83
2023/04/29 10:06:52;;;;;;;20.83;14.27;;;;;;;13.41;100.00;-18388.72;5010044;28;20405;-83
2023/04/29 10:09:19;;;;;;;21.00;14.45;;;;;;;13.64;100.00;-18395.03;5009135;28;20128;-82
2023/04/29 10:11:46;;;;;;;19.40;14.35;;;;;;;13.85;100.00;-18400.50;5011643;28;20650;-83
2023/04/29 10:14:14;;;;;;;18.30;14.25;;;;;;;13.96;100.00;-18403.66;5023228;28;20038;-82
2023/04/29 10:16:47;;;;;;;19.58;13.75;;;;;;;14.30;100.00;-18412.69;5017387;28;20115;-83
2023/04/29 10:19:51;;;;;;;17.80;13.70;;;;;;;14.51;100.00;-18418.31;5010139;28;20057;-83
2023/04/29 10:22:24;;;;;;;20.83;14.00;;;;;;;14.26;100.00;-18411.47;4980928;28;20037;-82
2023/04/29 10:24:51;;;;;;;18.20;13.52;;;;;;;14.25;100.00;-18411.19;4969945;28;20038;-82
2023/04/29 10:27:19;;;;;;;20.58;13.60;;;;;;;14.27;100.00;-18411.88;5010110;28;20062;-86
2023/04/29 10:29:47;;;;;;;19.65;14.23;;;;;;;14.16;100.00;-18409.00;5008786;28;20046;-86
2023/04/29 10:32:13;;;;;;;18.35;13.43;;;;;;;14.16;100.00;-18409.00;5008722;28;20033;-85
2023/04/29 10:34:40;;;;;;;17.70;13.52;;;;;;;14.10;100.00;-18407.34;5013738;28;20050;-84
2023/04/29 10:37:10;;;;;;;20.48;13.82;;;;;;;14.16;100.00;-18408.88;5012469;28;20042;-85
2023/04/29 10:39:42;;;;;;;21.05;14.60;;;;;;;14.11;100.00;-18407.63;5010351;28;20045;-86
2023/04/29 10:42:20;;;;;;;20.52;13.93;;;;;;;14.23;100.00;-18410.91;5007342;28;20030;-84
2023/04/29 10:45:23;;;;;;;18.60;13.52;;;;;;;14.39;100.00;-18415.03;5014818;28;20042;-86
2023/04/29 10:48:05;;;;;;;21.20;13.25;;;;;;;14.40;100.00;-18415.28;4978531;28;20517;-85
2023/04/29 10:50:58;;;;;;;18.27;13.02;;;;;;;14.39;100.00;-18415.03;5013346;28;20169;-86
2023/04/29 10:53:24;;;;;;;18.33;13.32;;;;;;;14.33;100.00;-18413.53;5008770;28;20125;-85
2023/04/29 10:55:55;;;;;;;17.48;13.05;;;;;;;14.42;100.00;-18415.84;5017727;28;20065;-86
2023/04/29 10:58:35;;;;;;;21.13;13.07;;;;;;;14.50;100.00;-18418.03;5016837;28;20101;-85
2023/04/29 11:01:00;;;;;;;18.10;12.93;;;;;;;14.75;100.00;-18424.59;4997867;28;20038;-85
2023/04/29 11:03:59;;;;;;;18.83;12.73;;;;;;;14.49;100.00;-18417.63;5029219;28;20069;-87